Time;durP1;ratioP1;P1;durP2;ratioP2;P2;SDS_P1;SDS_P2;PMS_P1;PMS_P2;Temp;Humidity;BMP_temperature;BMP_pressure;BME280_temperature;BME280_humidity;BME280_pressure;Samples;Min_cycle;Max_cycle;Signal;HPM_P1;HPM_P2
2021/03/02 00:00:20;;;;;;;33.20;21.57;;;5.80;98.30;;;;;;5152494;23;20456;-83
2021/03/02 00:02:23;;;;;;;34.17;19.43;;;5.80;98.30;;;;;;5160049;23;20444;-82
2021/03/02 00:04:26;;;;;;;33.47;22.57;;;5.80;98.30;;;;;;5159722;23;20452;-82
2021/03/02 00:06:28;;;;;;;28.37;17.97;;;5.70;98.30;;;;;;5160641;23;20452;-82
2021/03/02 00:08:31;;;;;;;29.40;18.90;;;5.60;98.30;;;;;;5152356;23;20451;-82
2021/03/02 00:10:33;;;;;;;32.80;18.93;;;5.50;98.30;;;;;;5151802;23;20827;-82
2021/03/02 00:12:36;;;;;;;34.80;20.93;;;5.50;98.30;;;;;;5158140;23;20455;-82
2021/03/02 00:14:38;;;;;;;37.07;20.30;;;5.60;98.30;;;;;;5150991;23;20456;-81
2021/03/02 00:16:44;;;;;;;32.80;20.93;;;5.40;98.30;;;;;;5160452;23;20472;-82
2021/03/02 00:18:48;;;;;;;35.00;22.27;;;5.30;98.30;;;;;;5161497;23;20445;-83
2021/03/02 00:20:55;;;;;;;29.43;18.33;;;5.30;98.30;;;;;;5154510;23;20461;-82
2021/03/02 00:22:59;;;;;;;32.00;19.87;;;5.30;98.30;;;;;;5163484;23;20927;-82
2021/03/02 00:25:06;;;;;;;34.70;19.17;;;5.40;98.30;;;;;;5164093;23;20479;-81
2021/03/02 00:27:11;;;;;;;35.87;19.90;;;5.40;98.30;;;;;;5155144;23;20457;-82
2021/03/02 00:29:14;;;;;;;36.80;22.13;;;5.30;98.30;;;;;;5154371;23;21071;-82
2021/03/02 00:31:17;;;;;;;40.10;26.70;;;5.40;98.30;;;;;;5155520;23;20967;-82
2021/03/02 00:33:22;;;;;;;36.50;18.10;;;5.40;98.30;;;;;;5164030;23;20938;-82
2021/03/02 00:35:24;;;;;;;33.93;21.80;;;5.40;98.30;;;;;;5164618;23;20812;-82
2021/03/02 00:37:26;;;;;;;42.07;21.27;;;5.50;98.30;;;;;;5163043;23;20476;-82
2021/03/02 00:39:28;;;;;;;38.90;21.10;;;5.40;98.30;;;;;;5154194;23;20461;-82
2021/03/02 00:41:30;;;;;;;38.40;21.40;;;5.40;98.30;;;;;;5164580;23;20455;-82
2021/03/02 00:43:32;;;;;;;35.97;22.77;;;5.40;98.30;;;;;;5163913;23;20445;-82
2021/03/02 00:45:34;;;;;;;36.63;19.80;;;5.30;98.30;;;;;;5156063;23;20453;-82
2021/03/02 00:47:37;;;;;;;38.30;19.00;;;5.20;98.30;;;;;;5164645;23;20448;-82
2021/03/02 00:49:40;;;;;;;30.87;18.67;;;5.20;98.30;;;;;;5164768;23;20932;-82
2021/03/02 00:51:42;;;;;;;31.10;17.83;;;5.20;98.30;;;;;;5157344;23;20460;-82
2021/03/02 00:53:44;;;;;;;37.13;20.57;;;5.10;98.30;;;;;;5157665;23;20472;-82
2021/03/02 00:55:46;;;;;;;36.07;20.10;;;5.00;98.30;;;;;;5158033;23;20457;-82
2021/03/02 00:57:48;;;;;;;40.50;20.40;;;5.00;98.30;;;;;;5155124;23;20460;-83
2021/03/02 00:59:50;;;;;;;37.13;19.90;;;5.00;98.30;;;;;;5153823;23;20864;-83
2021/03/02 01:01:52;;;;;;;42.90;20.93;;;4.90;98.30;;;;;;5153378;23;20453;-83
2021/03/02 01:03:54;;;;;;;46.77;21.80;;;4.90;98.30;;;;;;5153589;23;20516;-83
2021/03/02 01:05:57;;;;;;;39.27;19.80;;;5.00;98.30;;;;;;5162374;23;20444;-83
2021/03/02 01:07:59;;;;;;;35.70;20.00;;;4.90;98.30;;;;;;5156757;23;20478;-83
2021/03/02 01:10:01;;;;;;;38.53;23.30;;;4.90;98.30;;;;;;5166380;23;20511;-83
2021/03/02 01:12:04;;;;;;;36.20;20.33;;;4.90;98.30;;;;;;5163400;23;20491;-83
2021/03/02 01:14:06;;;;;;;38.60;19.60;;;4.90;98.30;;;;;;5162378;23;21079;-83
2021/03/02 01:16:08;;;;;;;43.27;21.67;;;4.90;98.30;;;;;;5154582;23;20520;-82
2021/03/02 01:18:11;;;;;;;38.07;20.23;;;4.70;98.30;;;;;;5162409;23;20448;-83
2021/03/02 01:20:14;;;;;;;37.73;20.13;;;4.70;98.30;;;;;;5154026;23;20523;-82
2021/03/02 01:22:17;;;;;;;42.83;21.33;;;4.70;98.30;;;;;;5154558;23;20460;-82
2021/03/02 01:24:19;;;;;;;33.53;20.90;;;4.70;98.30;;;;;;5154669;23;20908;-83
2021/03/02 01:26:21;;;;;;;37.10;20.90;;;4.70;98.30;;;;;;5148557;23;20510;-82
2021/03/02 01:28:23;;;;;;;41.67;24.10;;;4.70;98.30;;;;;;5153837;23;21001;-82
2021/03/02 01:30:26;;;;;;;40.60;21.03;;;4.80;98.30;;;;;;5153718;23;20504;-82
2021/03/02 01:32:28;;;;;;;43.77;23.97;;;4.70;98.30;;;;;;5155112;23;20456;-82
2021/03/02 01:34:30;;;;;;;40.37;19.90;;;4.70;98.30;;;;;;5155991;23;20463;-82
2021/03/02 01:36:32;;;;;;;45.63;21.80;;;4.70;98.30;;;;;;5164177;23;20471;-82
2021/03/02 01:38:36;;;;;;;39.13;19.70;;;4.80;98.30;;;;;;5149939;23;20863;-82
2021/03/02 01:40:38;;;;;;;34.47;20.83;;;4.80;98.30;;;;;;5157878;23;20447;-82
2021/03/02 01:42:41;;;;;;;43.03;20.70;;;4.80;98.30;;;;;;5150785;23;20460;-83
2021/03/02 01:44:43;;;;;;;43.87;22.77;;;4.80;98.30;;;;;;5159301;23;20463;-83
2021/03/02 01:46:47;;;;;;;43.13;21.40;;;4.80;98.30;;;;;;5150716;23;20455;-83
2021/03/02 01:48:49;;;;;;;31.70;17.83;;;4.90;98.30;;;;;;5150295;23;20455;-82
2021/03/02 01:50:51;;;;;;;36.37;19.77;;;4.90;98.30;;;;;;5150041;23;20857;-83
2021/03/02 01:52:53;;;;;;;34.90;20.77;;;4.80;98.30;;;;;;5151205;23;20453;-82
2021/03/02 01:54:56;;;;;;;25.83;17.17;;;4.80;98.30;;;;;;5150427;23;20512;-82
2021/03/02 01:56:58;;;;;;;29.80;18.87;;;4.80;98.30;;;;;;5150376;23;20449;-82
2021/03/02 01:59:00;;;;;;;32.00;18.10;;;4.80;98.30;;;;;;5150496;23;20470;-82
2021/03/02 02:01:06;;;;;;;31.27;18.10;;;4.80;98.30;;;;;;5163523;23;20417;-82
2021/03/02 02:03:16;;;;;;;33.67;20.30;;;4.80;98.30;;;;;;5154763;23;20444;-82
2021/03/02 02:05:22;;;;;;;27.77;16.57;;;4.90;98.30;;;;;;5156555;23;20455;-82
2021/03/02 02:07:33;;;;;;;26.47;18.60;;;4.90;98.30;;;;;;5155478;23;20449;-82
2021/03/02 02:09:41;;;;;;;32.40;18.90;;;4.80;98.30;;;;;;5147255;23;20445;-83
2021/03/02 02:11:49;;;;;;;32.30;18.60;;;4.90;98.30;;;;;;5147983;23;20455;-82
2021/03/02 02:14:01;;;;;;;28.80;18.90;;;4.90;98.30;;;;;;5147396;23;20779;-82
2021/03/02 02:16:07;;;;;;;25.40;16.63;;;4.90;98.30;;;;;;5147844;23;20454;-82
2021/03/02 02:18:14;;;;;;;24.40;15.83;;;4.80;98.30;;;;;;5156852;23;20499;-82
2021/03/02 02:20:22;;;;;;;29.50;16.93;;;4.80;98.30;;;;;;5155955;23;20476;-82
2021/03/02 02:22:43;;;;;;;33.70;18.37;;;4.80;98.30;;;;;;5156305;23;20939;-82
2021/03/02 02:24:58;;;;;;;28.13;17.40;;;4.80;98.30;;;;;;5148550;23;20469;-82
2021/03/02 02:27:01;;;;;;;27.97;17.50;;;4.80;98.30;;;;;;5149359;23;20461;-81
2021/03/02 02:29:04;;;;;;;28.00;17.60;;;4.80;98.30;;;;;;5156483;23;20554;-82
2021/03/02 02:31:08;;;;;;;31.80;19.53;;;4.80;98.30;;;;;;5147553;23;20489;-82
2021/03/02 02:33:12;;;;;;;26.70;17.53;;;4.70;98.30;;;;;;5149017;23;20476;-83
2021/03/02 02:35:22;;;;;;;25.20;17.33;;;4.70;98.30;;;;;;5150354;23;20811;-83
2021/03/02 02:37:26;;;;;;;24.87;16.50;;;4.70;98.30;;;;;;5149031;23;20461;-82
2021/03/02 02:39:30;;;;;;;21.60;16.43;;;4.70;98.30;;;;;;5158972;23;20448;-83
2021/03/02 02:41:33;;;;;;;23.43;17.07;;;4.50;98.30;;;;;;5157822;23;20449;-82
2021/03/02 02:43:56;;;;;;;25.57;15.90;;;4.50;98.30;;;;;;5158736;23;20462;-83
2021/03/02 02:45:58;;;;;;;21.27;16.70;;;4.50;98.30;;;;;;5152100;23;20462;-82
2021/03/02 02:48:01;;;;;;;20.30;16.00;;;4.50;98.30;;;;;;5154147;23;20458;-81
2021/03/02 02:50:04;;;;;;;23.00;16.63;;;4.50;98.30;;;;;;5154586;23;20476;-81
2021/03/02 02:52:06;;;;;;;24.57;15.60;;;4.50;98.30;;;;;;5163874;23;20505;-81
2021/03/02 02:54:10;;;;;;;22.13;17.37;;;4.40;98.30;;;;;;5163196;23;20485;-81
2021/03/02 02:56:13;;;;;;;23.37;15.97;;;4.40;98.30;;;;;;5163752;23;20516;-81
2021/03/02 02:58:19;;;;;;;22.27;15.93;;;4.30;98.30;;;;;;5162133;23;20504;-82
2021/03/02 03:00:24;;;;;;;22.03;14.90;;;4.30;98.30;;;;;;5153887;23;20453;-82
2021/03/02 03:02:28;;;;;;;18.30;12.87;;;4.30;98.30;;;;;;5161382;23;20749;-81
2021/03/02 03:04:34;;;;;;;18.63;14.43;;;4.30;98.30;;;;;;5153730;23;20457;-82
2021/03/02 03:06:40;;;;;;;19.90;15.93;;;4.30;98.30;;;;;;5163647;23;20483;-82
2021/03/02 03:08:48;;;;;;;17.40;14.07;;;4.30;98.30;;;;;;5161629;23;21131;-82
2021/03/02 03:10:53;;;;;;;19.00;14.57;;;4.30;98.30;;;;;;5160646;23;20449;-81
2021/03/02 03:13:02;;;;;;;21.33;15.53;;;4.30;98.30;;;;;;5153292;23;20458;-82
2021/03/02 03:15:06;;;;;;;16.00;14.30;;;4.30;98.30;;;;;;5161919;23;21248;-81
2021/03/02 03:17:12;;;;;;;16.33;13.77;;;4.20;98.30;;;;;;5154016;23;20484;-82
2021/03/02 03:19:21;;;;;;;18.53;14.47;;;4.20;98.30;;;;;;5161758;23;20512;-82
2021/03/02 03:21:24;;;;;;;17.80;14.75;;;4.20;98.30;;;;;;5152073;23;20452;-81
2021/03/02 03:23:28;;;;;;;15.45;12.85;;;4.20;98.30;;;;;;5151985;23;20209;-81
2021/03/02 03:25:32;;;;;;;20.25;15.63;;;4.10;98.30;;;;;;5150849;23;20206;-81
2021/03/02 03:27:36;;;;;;;19.63;16.20;;;4.10;98.30;;;;;;5154411;23;20711;-82
2021/03/02 03:29:39;;;;;;;22.73;15.57;;;4.10;98.30;;;;;;5161005;23;20206;-82
2021/03/02 03:31:42;;;;;;;19.80;15.83;;;4.10;98.30;;;;;;5162091;23;20202;-82
2021/03/02 03:33:46;;;;;;;19.95;16.92;;;4.00;98.30;;;;;;5153692;23;20453;-82
2021/03/02 03:35:48;;;;;;;18.70;15.18;;;4.10;98.30;;;;;;5159946;23;20198;-81
2021/03/02 03:37:51;;;;;;;21.30;13.65;;;4.10;98.30;;;;;;5156637;23;20206;-81
2021/03/02 03:39:53;;;;;;;25.05;16.35;;;4.10;98.30;;;;;;5164283;23;20209;-82
2021/03/02 03:41:55;;;;;;;18.23;13.52;;;4.00;98.30;;;;;;5155651;23;20209;-82
2021/03/02 03:43:57;;;;;;;21.90;16.65;;;4.00;98.30;;;;;;5162850;23;20241;-82
2021/03/02 03:45:59;;;;;;;18.67;14.45;;;3.90;98.30;;;;;;5147849;23;20629;-82
2021/03/02 03:48:01;;;;;;;20.37;14.80;;;3.90;98.30;;;;;;5147349;23;20253;-82
2021/03/02 03:50:06;;;;;;;24.80;17.40;;;3.90;98.30;;;;;;5147964;23;20480;-83
2021/03/02 03:52:10;;;;;;;23.25;18.17;;;4.00;98.30;;;;;;5149741;23;20513;-83
2021/03/02 03:54:15;;;;;;;22.25;17.13;;;4.00;98.30;;;;;;5148544;23;20210;-82
2021/03/02 03:56:17;;;;;;;26.92;17.60;;;3.90;98.30;;;;;;5150200;23;20210;-83
2021/03/02 03:58:22;;;;;;;24.95;15.93;;;3.80;98.30;;;;;;5148613;23;20233;-82
2021/03/02 04:00:25;;;;;;;112.65;19.85;;;3.70;98.30;;;;;;5155353;23;20210;-82
2021/03/02 04:02:29;;;;;;;83.65;19.40;;;3.10;98.30;;;;;;5146312;23;20213;-82
2021/03/02 04:04:31;;;;;;;170.13;23.95;;;2.70;98.30;;;;;;5155996;23;20252;-82
2021/03/02 04:06:35;;;;;;;131.20;23.25;;;2.90;98.30;;;;;;5156550;23;20257;-82
2021/03/02 04:08:38;;;;;;;68.13;19.48;;;3.00;98.30;;;;;;5148696;23;20206;-82
2021/03/02 04:10:42;;;;;;;54.78;19.48;;;3.10;98.30;;;;;;5157827;23;20194;-82
2021/03/02 04:12:46;;;;;;;84.75;22.27;;;3.10;98.30;;;;;;5157221;23;20220;-81
2021/03/02 04:15:04;;;;;;;55.38;20.77;;;3.10;98.30;;;;;;5154357;23;20233;-82
2021/03/02 04:17:09;;;;;;;48.55;21.25;;;3.10;98.30;;;;;;5143088;23;20212;-82
2021/03/02 04:19:11;;;;;;;37.72;19.77;;;3.00;98.30;;;;;;5151521;23;20564;-81
2021/03/02 04:21:13;;;;;;;28.15;19.05;;;3.00;98.30;;;;;;5143576;23;20277;-81
2021/03/02 04:23:16;;;;;;;28.85;18.92;;;3.00;98.30;;;;;;5143252;23;20205;-81
2021/03/02 04:25:18;;;;;;;104.40;23.73;;;3.20;98.30;;;;;;5152293;23;20201;-81
2021/03/02 04:27:20;;;;;;;45.05;19.40;;;3.30;98.30;;;;;;5143985;23;20256;-82
2021/03/02 04:29:22;;;;;;;31.02;16.95;;;3.20;98.30;;;;;;5143305;23;20206;-83
2021/03/02 04:31:24;;;;;;;20.13;14.27;;;3.20;98.30;;;;;;5143519;23;20225;-81
2021/03/02 04:33:26;;;;;;;20.33;15.00;;;3.20;98.30;;;;;;5143638;23;20583;-82
2021/03/02 04:35:28;;;;;;;44.75;15.98;;;3.30;98.30;;;;;;5143908;23;20206;-82
2021/03/02 04:37:30;;;;;;;26.92;17.02;;;3.40;98.30;;;;;;5143650;23;20202;-81
2021/03/02 04:39:33;;;;;;;28.40;14.90;;;3.40;98.30;;;;;;5143452;23;20210;-82
2021/03/02 04:41:35;;;;;;;22.38;16.73;;;3.50;98.30;;;;;;5144209;23;20526;-82
2021/03/02 04:43:38;;;;;;;22.83;15.75;;;3.40;98.30;;;;;;5144340;23;20264;-82
2021/03/02 04:45:40;;;;;;;23.70;15.90;;;3.40;98.30;;;;;;5144421;23;20216;-81
2021/03/02 04:47:46;;;;;;;31.05;14.82;;;3.40;98.30;;;;;;5143488;23;20206;-81
2021/03/02 04:49:48;;;;;;;22.60;14.40;;;3.40;98.30;;;;;;5143705;23;20210;-82
2021/03/02 04:51:50;;;;;;;25.25;17.17;;;3.30;98.30;;;;;;5143701;23;20284;-82
2021/03/02 04:53:52;;;;;;;24.75;15.35;;;3.30;98.30;;;;;;5152065;23;20289;-82
2021/03/02 04:55:55;;;;;;;25.35;17.65;;;3.40;98.30;;;;;;5143729;23;20206;-82
2021/03/02 04:57:57;;;;;;;28.65;16.58;;;3.30;98.30;;;;;;5152027;23;20301;-82
2021/03/02 04:59:59;;;;;;;29.27;18.10;;;3.30;98.30;;;;;;5144403;23;20717;-81
2021/03/02 05:02:01;;;;;;;28.80;17.95;;;3.30;98.30;;;;;;5153644;23;20252;-82
2021/03/02 05:04:04;;;;;;;27.33;19.15;;;3.20;98.30;;;;;;5151995;23;20202;-82
2021/03/02 05:06:06;;;;;;;31.08;18.30;;;3.20;98.30;;;;;;5152658;23;20208;-81
2021/03/02 05:08:08;;;;;;;29.67;17.83;;;3.20;98.30;;;;;;5144577;23;20284;-81
2021/03/02 05:10:11;;;;;;;25.08;17.13;;;3.10;98.30;;;;;;5144636;23;20209;-81
2021/03/02 05:12:14;;;;;;;21.52;16.80;;;3.00;98.30;;;;;;5144099;23;20208;-81
2021/03/02 05:14:16;;;;;;;19.90;16.25;;;2.90;98.30;;;;;;5144760;23;20202;-81
2021/03/02 05:16:18;;;;;;;24.92;17.00;;;3.00;98.30;;;;;;5144605;23;20288;-81
2021/03/02 05:18:20;;;;;;;22.27;17.80;;;3.00;98.30;;;;;;5144419;23;20224;-82
2021/03/02 05:20:22;;;;;;;22.08;15.82;;;3.10;98.30;;;;;;5144549;23;20209;-82
2021/03/02 05:22:24;;;;;;;27.92;16.50;;;3.10;98.30;;;;;;5153119;23;20297;-82
2021/03/02 05:24:27;;;;;;;35.63;17.75;;;2.90;98.30;;;;;;5143878;23;20236;-81
2021/03/02 05:26:29;;;;;;;41.90;18.35;;;2.80;98.30;;;;;;5143730;23;20216;-81
2021/03/02 05:28:32;;;;;;;34.75;18.90;;;2.60;98.30;;;;;;5143113;23;20212;-81
2021/03/02 05:30:34;;;;;;;35.83;19.20;;;2.40;98.30;;;;;;5143871;23;20271;-82
2021/03/02 05:32:36;;;;;;;42.55;21.30;;;2.40;98.30;;;;;;5142737;23;20208;-82
2021/03/02 05:34:38;;;;;;;36.88;21.40;;;2.40;98.30;;;;;;5151990;23;20241;-82
2021/03/02 05:36:41;;;;;;;63.97;22.30;;;2.50;98.30;;;;;;5150982;23;20224;-82
2021/03/02 05:38:43;;;;;;;34.67;21.48;;;2.60;98.30;;;;;;5151416;23;20257;-82
2021/03/02 05:40:45;;;;;;;60.40;21.25;;;2.50;98.30;;;;;;5142777;23;20213;-82
2021/03/02 05:42:51;;;;;;;35.03;20.02;;;2.40;98.30;;;;;;5143123;23;20202;-82
2021/03/02 05:44:54;;;;;;;69.05;22.83;;;2.40;98.30;;;;;;5151605;23;20209;-82
2021/03/02 05:46:56;;;;;;;87.28;22.40;;;2.40;98.30;;;;;;5151079;23;20205;-82
2021/03/02 05:48:59;;;;;;;38.60;22.35;;;2.50;98.30;;;;;;5143066;23;20205;-82
2021/03/02 05:51:01;;;;;;;47.72;22.05;;;2.40;98.30;;;;;;5144727;23;20229;-82
2021/03/02 05:53:03;;;;;;;56.72;22.27;;;2.40;98.30;;;;;;5142738;23;20209;-81
2021/03/02 05:55:07;;;;;;;85.88;24.63;;;2.40;98.30;;;;;;5143214;23;20210;-81
2021/03/02 05:57:10;;;;;;;105.60;23.42;;;2.40;98.30;;;;;;5143511;23;20209;-81
2021/03/02 05:59:12;;;;;;;58.85;22.17;;;2.50;98.30;;;;;;5155136;23;20189;-81
2021/03/02 06:01:14;;;;;;;102.32;22.15;;;2.60;98.30;;;;;;5151298;23;20240;-81
2021/03/02 06:03:19;;;;;;;102.18;27.35;;;2.50;98.30;;;;;;5152940;23;20236;-81
2021/03/02 06:05:21;;;;;;;90.82;43.85;;;2.40;98.30;;;;;;5142478;23;20592;-81
2021/03/02 06:07:23;;;;;;;80.47;44.17;;;2.50;98.30;;;;;;5142303;23;20202;-81
2021/03/02 06:09:26;;;;;;;135.00;62.63;;;2.50;98.30;;;;;;5152291;23;20232;-82
2021/03/02 06:11:30;;;;;;;102.00;35.60;;;2.60;98.30;;;;;;5145065;23;20255;-81
2021/03/02 06:13:32;;;;;;;51.30;27.58;;;2.60;98.30;;;;;;5153227;23;20197;-81
2021/03/02 06:15:34;;;;;;;56.75;22.15;;;2.70;98.30;;;;;;5145612;23;20784;-81
2021/03/02 06:17:37;;;;;;;53.28;21.90;;;2.60;98.30;;;;;;5144399;23;20209;-81
2021/03/02 06:19:42;;;;;;;44.15;21.70;;;2.70;98.30;;;;;;5152244;23;20206;-81
2021/03/02 06:21:45;;;;;;;43.42;21.63;;;2.80;98.30;;;;;;5144618;23;20748;-81
2021/03/02 06:23:50;;;;;;;51.92;20.58;;;2.80;98.30;;;;;;5144185;23;20289;-81
2021/03/02 06:25:52;;;;;;;74.00;20.48;;;2.80;98.30;;;;;;5152377;23;20212;-81
2021/03/02 06:27:55;;;;;;;67.25;21.10;;;2.60;98.30;;;;;;5151988;23;20205;-82
2021/03/02 06:30:11;;;;;;;78.50;20.65;;;2.50;98.30;;;;;;5152514;23;20269;-82
2021/03/02 06:32:13;;;;;;;66.78;21.73;;;2.30;98.30;;;;;;5143882;23;20205;-82
2021/03/02 06:34:17;;;;;;;63.15;20.90;;;2.10;98.30;;;;;;5152801;23;20237;-82
2021/03/02 06:36:19;;;;;;;31.73;19.95;;;2.10;98.30;;;;;;5144559;23;20237;-82
2021/03/02 06:38:28;;;;;;;38.22;21.50;;;2.30;98.30;;;;;;5153040;23;20197;-82
2021/03/02 06:40:41;;;;;;;61.20;20.02;;;2.50;98.30;;;;;;5152105;23;20202;-82
2021/03/02 06:42:45;;;;;;;36.25;19.90;;;2.60;98.30;;;;;;5144379;23;20763;-82
2021/03/02 06:44:48;;;;;;;30.02;19.17;;;2.60;98.30;;;;;;5153567;23;20267;-82
2021/03/02 06:46:52;;;;;;;78.90;41.15;;;2.60;98.30;;;;;;5151957;23;20204;-82
2021/03/02 06:48:56;;;;;;;105.18;41.35;;;2.70;98.30;;;;;;5143999;23;20933;-82
2021/03/02 06:50:59;;;;;;;123.82;48.42;;;2.70;98.30;;;;;;5152217;23;20526;-81
2021/03/02 06:53:08;;;;;;;78.22;33.92;;;2.80;98.30;;;;;;5143697;23;20202;-82
2021/03/02 06:55:23;;;;;;;45.45;23.25;;;2.70;98.30;;;;;;5152109;23;20205;-81
2021/03/02 06:57:26;;;;;;;61.85;23.88;;;2.70;98.30;;;;;;5143967;23;20210;-82
2021/03/02 06:59:30;;;;;;;39.30;22.60;;;2.70;98.30;;;;;;5143726;23;20236;-81
2021/03/02 07:01:35;;;;;;;70.43;22.40;;;2.80;98.30;;;;;;5144496;23;20532;-81
2021/03/02 07:03:38;;;;;;;129.55;25.08;;;2.80;98.30;;;;;;5152562;23;20256;-81
2021/03/02 07:05:46;;;;;;;49.45;21.20;;;2.80;98.30;;;;;;5145078;23;20213;-82
2021/03/02 07:07:55;;;;;;;84.65;24.45;;;2.80;98.30;;;;;;5144927;23;20728;-82
2021/03/02 07:09:58;;;;;;;166.60;79.40;;;2.60;98.30;;;;;;5144779;23;20284;-82
2021/03/02 07:12:02;;;;;;;54.40;33.85;;;2.50;98.30;;;;;;5152551;23;20208;-82
2021/03/02 07:14:06;;;;;;;94.60;33.60;;;2.40;98.30;;;;;;5144542;23;20596;-82
2021/03/02 07:16:10;;;;;;;63.72;27.40;;;2.40;98.30;;;;;;5144447;23;20206;-81
2021/03/02 07:18:15;;;;;;;53.65;20.38;;;2.50;98.30;;;;;;5144716;23;20205;-81
2021/03/02 07:20:23;;;;;;;40.08;22.02;;;2.50;98.30;;;;;;5151289;23;20287;-82
2021/03/02 07:22:26;;;;;;;42.53;22.70;;;2.70;98.30;;;;;;5152659;23;20216;-81
2021/03/02 07:24:32;;;;;;;48.55;21.83;;;2.90;98.30;;;;;;5144314;23;20215;-81
2021/03/02 07:26:36;;;;;;;36.78;21.45;;;3.10;98.30;;;;;;5152359;23;20293;-82
2021/03/02 07:28:41;;;;;;;30.92;19.90;;;3.10;98.30;;;;;;5144303;23;20236;-82
2021/03/02 07:30:46;;;;;;;28.70;19.90;;;3.30;98.30;;;;;;5152501;23;20202;-81
2021/03/02 07:32:50;;;;;;;35.42;21.35;;;3.30;98.30;;;;;;5152982;23;20194;-82
2021/03/02 07:34:53;;;;;;;92.25;48.22;;;3.40;98.30;;;;;;5145199;23;20236;-82
2021/03/02 07:36:55;;;;;;;117.80;60.13;;;3.50;98.30;;;;;;5154156;23;20277;-82
2021/03/02 07:39:17;;;;;;;79.20;45.33;;;3.70;98.30;;;;;;5153249;23;20213;-82
2021/03/02 07:41:34;;;;;;;40.13;25.27;;;3.70;98.30;;;;;;5144997;23;20252;-82
2021/03/02 07:43:37;;;;;;;33.67;23.92;;;3.80;98.30;;;;;;5152993;23;20695;-81
2021/03/02 07:45:39;;;;;;;31.65;23.45;;;3.90;98.30;;;;;;5152482;23;20206;-82
2021/03/02 07:47:46;;;;;;;33.42;20.02;;;4.00;98.30;;;;;;5143879;23;20206;-82
2021/03/02 07:49:49;;;;;;;27.10;20.48;;;4.00;98.30;;;;;;5143790;23;20241;-81
2021/03/02 07:52:19;;;;;;;32.45;22.10;;;4.00;98.30;;;;;;5152404;23;20198;-82
2021/03/02 07:54:21;;;;;;;31.40;20.00;;;4.00;98.30;;;;;;5152293;23;20201;-81
2021/03/02 07:56:25;;;;;;;26.65;17.85;;;4.10;98.30;;;;;;5152128;23;20445;-82
2021/03/02 07:58:28;;;;;;;21.10;16.03;;;4.10;98.30;;;;;;5143567;23;20252;-82
2021/03/02 08:00:30;;;;;;;20.65;15.88;;;4.20;98.30;;;;;;5151734;23;20471;-82
2021/03/02 08:02:32;;;;;;;20.60;14.82;;;4.30;98.30;;;;;;5153006;23;20204;-82
2021/03/02 08:04:35;;;;;;;20.60;14.07;;;4.40;98.30;;;;;;5152599;23;20210;-82
2021/03/02 08:06:37;;;;;;;20.80;17.03;;;4.40;98.30;;;;;;5139974;23;20572;-83
2021/03/02 08:08:39;;;;;;;21.20;14.43;;;4.50;98.30;;;;;;5140493;23;20887;-83
2021/03/02 08:10:41;;;;;;;23.37;15.47;;;4.60;98.30;;;;;;5148348;23;20445;-82
2021/03/02 08:12:47;;;;;;;19.57;14.70;;;4.70;98.30;;;;;;5148604;23;20525;-82
2021/03/02 08:15:00;;;;;;;21.00;14.53;;;4.70;98.30;;;;;;5150346;23;20450;-82
2021/03/02 08:17:03;;;;;;;19.80;13.73;;;4.80;98.30;;;;;;5142865;23;20464;-82
2021/03/02 08:19:31;;;;;;;16.97;12.67;;;4.90;98.30;;;;;;5151766;23;20453;-82
2021/03/02 08:21:33;;;;;;;19.00;14.73;;;4.80;98.30;;;;;;5151071;23;20466;-82
2021/03/02 08:23:52;;;;;;;18.50;15.83;;;4.90;98.30;;;;;;5151570;23;20522;-82
2021/03/02 08:26:35;;;;;;;20.03;14.50;;;5.00;98.30;;;;;;5151311;23;20445;-83
2021/03/02 08:28:38;;;;;;;17.80;14.20;;;5.20;98.30;;;;;;5133921;23;20516;-82
2021/03/02 08:30:42;;;;;;;18.20;12.63;;;5.40;98.30;;;;;;5151939;23;20482;-82
2021/03/02 08:32:46;;;;;;;18.53;12.70;;;5.30;98.30;;;;;;5150698;23;20446;-82
2021/03/02 08:34:50;;;;;;;23.50;15.17;;;5.40;98.30;;;;;;5142401;23;20474;-83
2021/03/02 08:36:53;;;;;;;18.50;13.77;;;5.50;98.30;;;;;;5141770;23;20455;-82
2021/03/02 08:38:55;;;;;;;20.13;13.40;;;5.50;98.30;;;;;;5150442;23;20444;-82
2021/03/02 08:40:57;;;;;;;23.20;13.53;;;5.70;98.30;;;;;;5141467;23;20966;-82
2021/03/02 08:43:04;;;;;;;20.43;13.53;;;5.90;98.30;;;;;;5149897;23;20450;-82
2021/03/02 08:45:09;;;;;;;20.30;13.60;;;6.00;98.30;;;;;;5142232;23;20546;-82
2021/03/02 08:47:11;;;;;;;20.57;13.80;;;6.20;98.30;;;;;;5150555;23;20458;-82
2021/03/02 08:49:13;;;;;;;20.03;15.10;;;6.30;98.30;;;;;;5149899;23;20495;-82
2021/03/02 08:51:19;;;;;;;19.23;13.73;;;6.50;98.30;;;;;;5141957;23;20453;-82
2021/03/02 08:53:36;;;;;;;17.67;13.63;;;6.60;98.30;;;;;;5150064;23;20479;-82
2021/03/02 08:55:38;;;;;;;20.20;14.40;;;6.70;98.30;;;;;;5142406;23;20487;-82
2021/03/02 08:57:44;;;;;;;21.27;14.73;;;6.90;98.30;;;;;;5149100;23;20456;-83
2021/03/02 08:59:46;;;;;;;20.70;14.37;;;7.10;98.30;;;;;;5149730;23;20483;-82
2021/03/02 09:01:56;;;;;;;21.57;14.93;;;7.30;98.30;;;;;;5149790;23;20480;-82
2021/03/02 09:04:09;;;;;;;20.17;15.03;;;7.50;98.30;;;;;;5141849;23;20435;-83
2021/03/02 09:06:17;;;;;;;21.53;14.93;;;7.60;98.30;;;;;;5150715;23;20485;-83
2021/03/02 09:08:19;;;;;;;29.40;18.50;;;7.70;98.30;;;;;;5141663;23;20457;-83
2021/03/02 09:10:22;;;;;;;61.83;40.97;;;8.10;98.30;;;;;;5140710;23;20485;-83
2021/03/02 09:12:24;;;;;;;53.43;33.20;;;8.30;98.30;;;;;;5141658;23;20544;-83
2021/03/02 09:14:30;;;;;;;24.20;15.97;;;8.40;98.30;;;;;;5141927;23;20432;-83
2021/03/02 09:16:34;;;;;;;21.93;15.63;;;8.50;98.30;;;;;;5149673;23;20420;-84
2021/03/02 09:18:39;;;;;;;22.10;16.70;;;8.50;98.30;;;;;;5141831;23;20987;-83
2021/03/02 09:20:48;;;;;;;21.37;16.00;;;8.40;98.30;;;;;;5140309;23;20481;-84
2021/03/02 09:22:50;;;;;;;23.70;16.40;;;8.50;98.30;;;;;;5142203;23;20835;-84
2021/03/02 09:24:55;;;;;;;24.47;16.57;;;8.50;98.30;;;;;;5147680;23;20415;-83
2021/03/02 09:27:01;;;;;;;20.90;14.93;;;8.70;98.30;;;;;;5146951;23;20448;-83
2021/03/02 09:29:05;;;;;;;22.40;15.17;;;8.80;98.30;;;;;;5146388;23;20451;-83
2021/03/02 09:31:07;;;;;;;23.80;16.27;;;8.80;98.30;;;;;;5138690;23;20540;-84
2021/03/02 09:33:09;;;;;;;25.20;16.70;;;8.90;98.30;;;;;;5141418;23;20707;-82
2021/03/02 09:35:13;;;;;;;27.67;18.63;;;9.00;98.30;;;;;;5149967;23;20448;-83
2021/03/02 09:37:19;;;;;;;25.03;17.47;;;9.00;98.30;;;;;;5147629;23;20513;-83
2021/03/02 09:39:24;;;;;;;22.57;16.20;;;9.20;98.30;;;;;;5141796;23;20457;-83
2021/03/02 09:41:34;;;;;;;26.93;16.90;;;9.40;98.30;;;;;;5141421;23;20465;-83
2021/03/02 09:43:37;;;;;;;22.70;14.60;;;9.20;98.30;;;;;;5150594;23;20771;-84
2021/03/02 09:45:39;;;;;;;26.10;17.00;;;9.00;98.30;;;;;;5143953;23;20449;-83
2021/03/02 09:47:43;;;;;;;29.70;17.60;;;9.00;98.30;;;;;;5144042;23;20535;-82
2021/03/02 09:49:56;;;;;;;29.40;17.20;;;9.30;98.30;;;;;;5151526;23;20440;-84
2021/03/02 09:51:59;;;;;;;28.77;17.30;;;9.70;98.30;;;;;;5152392;23;20454;-83
2021/03/02 09:54:15;;;;;;;37.40;22.83;;;10.10;98.30;;;;;;5152371;23;20776;-83
2021/03/02 09:56:17;;;;;;;44.50;24.47;;;10.50;98.30;;;;;;5152503;23;20441;-83
2021/03/02 09:58:20;;;;;;;40.37;24.57;;;10.80;98.30;;;;;;5144481;23;20459;-83
2021/03/02 10:00:27;;;;;;;43.40;24.97;;;11.00;98.30;;;;;;5144379;23;20453;-83
2021/03/02 10:02:29;;;;;;;32.80;19.40;;;11.10;98.30;;;;;;5144877;23;20462;-83
2021/03/02 10:04:31;;;;;;;27.63;18.63;;;11.40;98.30;;;;;;5153522;23;20445;-83
2021/03/02 10:06:34;;;;;;;25.30;17.57;;;11.70;98.30;;;;;;5145714;23;20463;-83
2021/03/02 10:08:37;;;;;;;26.70;17.20;;;11.60;98.30;;;;;;5152701;23;20445;-83
2021/03/02 10:10:40;;;;;;;26.63;18.33;;;11.80;98.30;;;;;;5144628;23;20488;-84
2021/03/02 10:12:58;;;;;;;38.10;27.73;;;12.20;97.90;;;;;;5146256;23;20449;-83
2021/03/02 10:15:00;;;;;;;54.83;31.60;;;12.30;97.70;;;;;;5147382;23;20448;-83
2021/03/02 10:17:02;;;;;;;69.63;43.43;;;12.60;96.80;;;;;;5158292;23;20515;-83
2021/03/02 10:19:21;;;;;;;32.57;20.93;;;12.60;96.40;;;;;;5158280;23;20448;-83
2021/03/02 10:21:25;;;;;;;23.03;17.20;;;12.60;96.30;;;;;;5145099;23;20552;-83
2021/03/02 10:23:27;;;;;;;22.00;17.87;;;12.60;96.30;;;;;;5143517;23;20478;-83
2021/03/02 10:25:40;;;;;;;22.87;16.60;;;12.70;96.30;;;;;;5153327;23;20531;-82
2021/03/02 10:27:55;;;;;;;22.77;17.13;;;12.90;96.20;;;;;;5153199;23;20485;-83
2021/03/02 10:29:58;;;;;;;22.73;16.40;;;13.10;95.30;;;;;;5153152;23;20456;-83
2021/03/02 10:32:00;;;;;;;22.83;16.53;;;13.20;95.00;;;;;;5152677;23;20531;-83
2021/03/02 10:34:06;;;;;;;26.10;18.03;;;13.10;94.20;;;;;;5153639;23;20456;-83
2021/03/02 10:36:17;;;;;;;25.33;15.70;;;12.80;95.20;;;;;;5145127;23;20453;-83
2021/03/02 10:38:19;;;;;;;39.13;28.23;;;13.10;95.20;;;;;;5151738;23;20480;-83